Time;durP1;ratioP1;P1;durP2;ratioP2;P2;SDS_P1;SDS_P2;PMS_P1;PMS_P2;Temp;Humidity;BMP_temperature;BMP_pressure;BME280_temperature;BME280_humidity;BME280_pressure;Samples;Min_cycle;Max_cycle;Signal;HPM_P1;HPM_P2
2022/12/31 00:01:58;;;;;;;1.35;0.50;;;;;;;;;;5302344;28;20104;-70
2022/12/31 00:04:29;;;;;;;1.37;0.40;;;;;;;;;;5302576;28;20024;-69
2022/12/31 00:07:00;;;;;;;0.87;0.30;;;;;;;;;;5302014;28;20331;-69
2022/12/31 00:09:31;;;;;;;0.55;0.30;;;;;;;;;;5302419;28;20262;-69
2022/12/31 00:12:03;;;;;;;0.60;0.20;;;;;;;;;;5302498;28;20475;-69
2022/12/31 00:14:34;;;;;;;0.77;0.20;;;;;;;;;;5301666;28;20421;-68
2022/12/31 00:17:05;;;;;;;2.45;0.20;;;;;;;;;;5303691;28;20137;-69
2022/12/31 00:19:36;;;;;;;0.70;0.20;;;;;;;;;;5304613;28;20015;-70
2022/12/31 00:22:08;;;;;;;1.40;0.20;;;;;;;;;;5303920;28;20028;-69
2022/12/31 00:24:39;;;;;;;0.70;0.20;;;;;;;;;;5304271;28;20023;-70
2022/12/31 00:27:10;;;;;;;0.93;0.30;;;;;;;;;;5304700;28;20032;-70
2022/12/31 00:29:41;;;;;;;0.50;0.20;;;;;;;;;;5303136;28;20016;-70
2022/12/31 00:32:12;;;;;;;1.63;0.32;;;;;;;;;;5304759;28;20552;-68
2022/12/31 00:34:44;;;;;;;0.40;0.20;;;;;;;;;;5303339;28;20039;-68
2022/12/31 00:37:15;;;;;;;0.63;0.20;;;;;;;;;;5304482;28;20277;-69
2022/12/31 00:39:46;;;;;;;0.70;0.30;;;;;;;;;;5303871;28;20426;-69
2022/12/31 00:42:17;;;;;;;0.68;0.30;;;;;;;;;;5304022;28;20031;-69
2022/12/31 00:44:49;;;;;;;0.95;0.20;;;;;;;;;;5303955;28;20479;-70
2022/12/31 00:47:20;;;;;;;0.70;0.30;;;;;;;;;;5304121;28;20068;-70
2022/12/31 00:49:51;;;;;;;0.73;0.20;;;;;;;;;;5303334;28;20013;-69
2022/12/31 00:52:22;;;;;;;0.60;0.20;;;;;;;;;;5303895;28;20027;-69
2022/12/31 00:54:53;;;;;;;1.42;0.20;;;;;;;;;;5303764;28;20266;-70
2022/12/31 00:57:24;;;;;;;0.50;0.10;;;;;;;;;;5303255;28;20382;-70
2022/12/31 00:59:56;;;;;;;0.30;0.10;;;;;;;;;;5304308;28;20345;-70
2022/12/31 01:02:27;;;;;;;1.23;0.57;;;;;;;;;;5303786;28;20273;-70
2022/12/31 01:04:58;;;;;;;0.30;0.10;;;;;;;;;;5302936;28;20120;-70
2022/12/31 01:07:29;;;;;;;0.53;0.10;;;;;;;;;;5303376;28;20035;-70
2022/12/31 01:10:00;;;;;;;1.00;0.10;;;;;;;;;;5302918;28;20262;-70
2022/12/31 01:12:31;;;;;;;0.53;0.10;;;;;;;;;;5303625;28;20270;-70
2022/12/31 01:15:03;;;;;;;0.80;0.10;;;;;;;;;;5303530;28;20300;-69
2022/12/31 01:17:34;;;;;;;1.35;0.10;;;;;;;;;;5302740;28;20073;-69
2022/12/31 01:20:05;;;;;;;0.50;0.10;;;;;;;;;;5303537;28;20020;-69
2022/12/31 01:22:37;;;;;;;1.00;0.10;;;;;;;;;;5303449;28;20077;-70
2022/12/31 01:25:08;;;;;;;0.20;0.00;;;;;;;;;;5302642;28;20051;-70
2022/12/31 01:27:39;;;;;;;0.73;0.10;;;;;;;;;;5302844;28;20771;-69
2022/12/31 01:30:10;;;;;;;0.20;0.08;;;;;;;;;;5303487;28;20024;-69
2022/12/31 01:32:42;;;;;;;0.77;0.10;;;;;;;;;;5302037;28;20020;-71
2022/12/31 01:35:13;;;;;;;0.35;0.10;;;;;;;;;;5303692;28;20503;-69
2022/12/31 01:37:44;;;;;;;0.50;0.00;;;;;;;;;;5302769;28;20053;-69
2022/12/31 01:40:15;;;;;;;0.20;0.10;;;;;;;;;;5302639;28;20543;-70
2022/12/31 01:42:56;;;;;;;0.40;0.10;;;;;;;;;;5302596;28;20016;-69
2022/12/31 01:45:28;;;;;;;0.13;0.00;;;;;;;;;;5302278;28;20026;-70
2022/12/31 01:47:59;;;;;;;0.20;0.00;;;;;;;;;;5302729;28;20051;-68
2022/12/31 01:50:32;;;;;;;0.25;0.00;;;;;;;;;;5302985;28;20506;-69
2022/12/31 01:53:03;;;;;;;1.48;0.00;;;;;;;;;;5301960;28;20074;-68
2022/12/31 01:55:34;;;;;;;0.00;0.00;;;;;;;;;;5302720;28;20418;-69
2022/12/31 01:58:24;;;;;;;0.00;0.00;;;;;;;;;;5303018;28;20024;-69
2022/12/31 02:00:56;;;;;;;0.30;0.00;;;;;;;;;;5301773;28;20309;-69
2022/12/31 02:03:28;;;;;;;0.10;0.00;;;;;;;;;;5302630;28;20012;-69
2022/12/31 02:06:29;;;;;;;0.08;0.00;;;;;;;;;;5302795;28;20031;-69
2022/12/31 02:09:00;;;;;;;0.20;0.00;;;;;;;;;;5289021;28;20081;-68
2022/12/31 02:11:35;;;;;;;0.28;0.10;;;;;;;;;;5302532;28;20032;-69
2022/12/31 02:14:14;;;;;;;0.13;0.00;;;;;;;;;;5301706;28;20017;-69
2022/12/31 02:16:45;;;;;;;;;;;;;;;;;;5302604;28;20024;-68
2022/12/31 02:19:45;;;;;;;0.10;0.00;;;;;;;;;;5306200;28;19904;-68
2022/12/31 02:22:19;;;;;;;0.10;0.00;;;;;;;;;;5306394;28;20016;-69
2022/12/31 02:24:56;;;;;;;1.35;0.10;;;;;;;;;;5306719;28;20020;-69
2022/12/31 02:27:40;;;;;;;0.70;0.30;;;;;;;;;;5306009;28;20028;-69
2022/12/31 02:30:15;;;;;;;0.50;0.30;;;;;;;;;;5307234;28;20042;-69
2022/12/31 02:32:51;;;;;;;1.00;0.20;;;;;;;;;;5306345;28;20058;-69
2022/12/31 02:35:32;;;;;;;0.30;0.10;;;;;;;;;;5306054;28;20382;-69
2022/12/31 02:38:12;;;;;;;0.22;0.10;;;;;;;;;;5306739;28;20032;-69
2022/12/31 02:40:44;;;;;;;0.17;0.10;;;;;;;;;;5306429;28;20028;-69
2022/12/31 02:43:15;;;;;;;0.45;0.10;;;;;;;;;;5306230;28;20085;-68
2022/12/31 02:45:49;;;;;;;0.65;0.10;;;;;;;;;;5306190;28;20027;-69
2022/12/31 02:48:24;;;;;;;0.50;0.20;;;;;;;;;;5309810;28;20044;-68
2022/12/31 02:50:58;;;;;;;1.23;0.20;;;;;;;;;;5306495;28;20039;-69
2022/12/31 02:53:48;;;;;;;1.20;0.20;;;;;;;;;;5306298;28;20103;-69
2022/12/31 02:56:19;;;;;;;1.05;0.30;;;;;;;;;;5305730;28;20028;-69
2022/12/31 03:02:12;;;;;;;0.40;0.30;;;;;;;;;;5306243;28;20618;-69
2022/12/31 03:04:54;;;;;;;0.45;0.20;;;;;;;;;;5305420;28;20027;-68
2022/12/31 03:07:26;;;;;;;0.35;0.20;;;;;;;;;;5306174;28;20028;-69
2022/12/31 03:09:58;;;;;;;1.05;0.20;;;;;;;;;;5304703;28;20520;-69
2022/12/31 03:12:45;;;;;;;0.47;0.20;;;;;;;;;;5306166;28;20479;-69
2022/12/31 03:15:20;;;;;;;0.22;0.20;;;;;;;;;;5306086;28;20020;-69
2022/12/31 03:17:55;;;;;;;0.28;0.20;;;;;;;;;;5304993;28;20012;-69
2022/12/31 03:23:23;;;;;;;1.48;0.52;;;;;;;;;;5305854;28;20024;-69
2022/12/31 03:25:55;;;;;;;0.15;0.10;;;;;;;;;;5304997;28;20107;-69
2022/12/31 03:28:28;;;;;;;0.20;0.10;;;;;;;;;;5305530;28;20016;-70
2022/12/31 03:31:00;;;;;;;0.43;0.10;;;;;;;;;;5304877;28;20030;-69
2022/12/31 03:33:32;;;;;;;0.25;0.10;;;;;;;;;;5305845;28;20094;-69
2022/12/31 03:36:07;;;;;;;0.30;0.10;;;;;;;;;;5305755;28;20024;-69
2022/12/31 03:38:39;;;;;;;0.10;0.10;;;;;;;;;;5304566;28;20533;-69
2022/12/31 03:41:10;;;;;;;0.28;0.10;;;;;;;;;;5305645;28;20046;-69
2022/12/31 03:43:41;;;;;;;0.15;0.13;;;;;;;;;;5305011;28;20034;-69
2022/12/31 03:46:13;;;;;;;0.10;0.10;;;;;;;;;;5304796;28;20189;-69
2022/12/31 03:48:44;;;;;;;0.13;0.10;;;;;;;;;;5304929;28;20801;-69
2022/12/31 03:51:15;;;;;;;0.20;0.10;;;;;;;;;;5305636;28;20050;-69
2022/12/31 03:53:47;;;;;;;0.13;0.10;;;;;;;;;;5304552;28;20377;-69
2022/12/31 03:56:19;;;;;;;0.20;0.10;;;;;;;;;;5305662;28;20107;-69
2022/12/31 03:58:50;;;;;;;0.30;0.10;;;;;;;;;;5304147;28;20263;-69
2022/12/31 04:01:23;;;;;;;0.45;0.10;;;;;;;;;;5305092;28;20020;-69
2022/12/31 04:03:54;;;;;;;0.55;0.10;;;;;;;;;;5304999;28;20394;-69
2022/12/31 04:06:25;;;;;;;0.52;0.10;;;;;;;;;;5303927;28;20126;-69
2022/12/31 04:08:56;;;;;;;0.55;0.00;;;;;;;;;;5304838;28;20020;-69
2022/12/31 04:11:27;;;;;;;0.08;0.00;;;;;;;;;;5305146;28;20467;-69
2022/12/31 04:13:58;;;;;;;0.28;0.00;;;;;;;;;;5304033;28;20107;-69
2022/12/31 04:16:31;;;;;;;0.30;0.00;;;;;;;;;;5304710;28;20030;-69
2022/12/31 04:19:02;;;;;;;0.40;0.00;;;;;;;;;;5304627;28;20276;-69
2022/12/31 04:21:33;;;;;;;0.45;0.10;;;;;;;;;;5304058;28;20020;-68
2022/12/31 04:24:05;;;;;;;0.63;0.00;;;;;;;;;;5304734;28;20023;-69
2022/12/31 04:26:37;;;;;;;0.82;0.00;;;;;;;;;;5304639;28;20073;-69
2022/12/31 04:29:08;;;;;;;2.00;0.17;;;;;;;;;;5303633;28;20008;-69
2022/12/31 04:31:40;;;;;;;2.15;0.13;;;;;;;;;;5304239;28;20115;-69
2022/12/31 04:34:11;;;;;;;0.80;0.10;;;;;;;;;;5304087;28;20024;-69
2022/12/31 04:36:42;;;;;;;1.95;0.10;;;;;;;;;;5304420;28;20254;-69
2022/12/31 04:39:13;;;;;;;0.80;0.10;;;;;;;;;;5304673;28;20047;-69
2022/12/31 04:41:44;;;;;;;2.20;0.22;;;;;;;;;;5302357;28;20060;-69
2022/12/31 04:44:16;;;;;;;1.40;0.10;;;;;;;;;;5304330;28;20023;-68
2022/12/31 04:46:47;;;;;;;1.40;0.10;;;;;;;;;;5303463;28;20776;-69
2022/12/31 04:49:18;;;;;;;0.98;0.10;;;;;;;;;;5303769;28;20437;-68
2022/12/31 04:51:49;;;;;;;1.47;0.10;;;;;;;;;;5303807;28;20065;-68
2022/12/31 04:54:20;;;;;;;3.00;0.20;;;;;;;;;;5304004;28;20310;-69
2022/12/31 04:56:52;;;;;;;1.35;0.10;;;;;;;;;;5303057;28;20020;-70
2022/12/31 04:59:23;;;;;;;2.53;0.10;;;;;;;;;;5303801;28;20053;-69
2022/12/31 05:01:54;;;;;;;2.17;0.20;;;;;;;;;;5303915;28;20642;-68
2022/12/31 05:04:25;;;;;;;0.98;0.10;;;;;;;;;;5303021;28;20116;-69
2022/12/31 05:06:56;;;;;;;2.85;0.20;;;;;;;;;;5303498;28;20093;-68
2022/12/31 05:09:28;;;;;;;1.38;0.13;;;;;;;;;;5303091;28;20012;-68
2022/12/31 05:11:59;;;;;;;1.02;0.10;;;;;;;;;;5303844;28;20110;-68
2022/12/31 05:14:30;;;;;;;1.57;0.10;;;;;;;;;;5303601;28;20073;-68
2022/12/31 05:17:02;;;;;;;1.00;0.10;;;;;;;;;;5302681;28;20261;-69
2022/12/31 05:19:33;;;;;;;0.95;0.10;;;;;;;;;;5303391;28;20330;-69
2022/12/31 05:24:54;;;;;;;2.05;0.10;;;;;;;;;;5302978;28;20032;-68
2022/12/31 05:27:26;;;;;;;0.40;0.00;;;;;;;;;;5303223;28;20028;-69
2022/12/31 05:29:58;;;;;;;0.40;0.10;;;;;;;;;;5303206;28;20474;-68
2022/12/31 05:32:29;;;;;;;0.75;0.10;;;;;;;;;;5302664;28;20016;-69
2022/12/31 05:35:00;;;;;;;0.70;0.10;;;;;;;;;;5303320;28;20020;-68
2022/12/31 05:37:32;;;;;;;0.88;0.10;;;;;;;;;;5302348;28;20277;-68
2022/12/31 05:40:03;;;;;;;0.63;0.10;;;;;;;;;;5303137;28;20023;-68
2022/12/31 05:42:35;;;;;;;1.45;0.00;;;;;;;;;;5302830;28;20020;-69
2022/12/31 05:45:06;;;;;;;0.82;0.10;;;;;;;;;;5302331;28;20023;-69
2022/12/31 05:47:38;;;;;;;2.95;0.10;;;;;;;;;;5302686;28;20048;-69
2022/12/31 05:50:11;;;;;;;1.42;0.10;;;;;;;;;;5303143;28;20068;-69
2022/12/31 05:52:43;;;;;;;0.68;0.10;;;;;;;;;;5300892;28;20020;-69
2022/12/31 05:55:14;;;;;;;1.05;0.10;;;;;;;;;;5303409;28;20068;-69
2022/12/31 05:57:45;;;;;;;0.47;0.00;;;;;;;;;;5302461;28;20104;-69
2022/12/31 06:00:16;;;;;;;0.68;0.10;;;;;;;;;;5302489;28;20479;-68
2022/12/31 06:02:48;;;;;;;1.85;0.10;;;;;;;;;;5302464;28;20024;-68
2022/12/31 06:05:19;;;;;;;3.40;0.20;;;;;;;;;;5302210;28;20024;-68
2022/12/31 06:07:50;;;;;;;0.70;0.10;;;;;;;;;;5302264;28;20166;-68
2022/12/31 06:10:21;;;;;;;0.93;0.10;;;;;;;;;;5302923;28;20447;-68
2022/12/31 06:12:52;;;;;;;0.82;0.08;;;;;;;;;;5302023;28;20034;-69
2022/12/31 06:15:23;;;;;;;0.52;0.10;;;;;;;;;;5302650;28;20020;-68
2022/12/31 06:17:55;;;;;;;0.95;0.10;;;;;;;;;;5302886;28;20039;-68
2022/12/31 06:20:26;;;;;;;2.28;0.20;;;;;;;;;;5302047;28;20020;-68
2022/12/31 06:22:57;;;;;;;1.13;0.10;;;;;;;;;;5302688;28;20028;-68
2022/12/31 06:25:28;;;;;;;1.65;0.10;;;;;;;;;;5302604;28;20353;-69
2022/12/31 06:28:00;;;;;;;2.77;0.10;;;;;;;;;;5301754;28;20602;-69
2022/12/31 06:30:31;;;;;;;0.60;0.10;;;;;;;;;;5302741;28;20277;-69
2022/12/31 06:33:02;;;;;;;0.60;0.10;;;;;;;;;;5302582;28;20277;-68
2022/12/31 06:35:33;;;;;;;0.68;0.00;;;;;;;;;;5301722;28;20272;-68
2022/12/31 06:38:04;;;;;;;1.50;0.10;;;;;;;;;;5302435;28;20363;-69
2022/12/31 06:40:36;;;;;;;1.00;0.10;;;;;;;;;;5301583;28;20024;-68
2022/12/31 06:43:07;;;;;;;0.93;0.10;;;;;;;;;;5302635;28;20407;-69
2022/12/31 06:45:38;;;;;;;2.10;0.10;;;;;;;;;;5301997;28;20024;-69
2022/12/31 06:48:09;;;;;;;0.70;0.10;;;;;;;;;;5301692;28;20407;-68
2022/12/31 06:50:41;;;;;;;1.35;0.17;;;;;;;;;;5302029;28;20330;-69
2022/12/31 06:53:13;;;;;;;1.55;0.13;;;;;;;;;;5302534;28;20016;-69
2022/12/31 06:55:44;;;;;;;2.42;0.30;;;;;;;;;;5301109;28;20020;-68
2022/12/31 06:58:16;;;;;;;0.98;0.00;;;;;;;;;;5302786;28;20455;-69
2022/12/31 07:00:55;;;;;;;1.02;0.10;;;;;;;;;;5302031;28;20047;-68
2022/12/31 07:03:29;;;;;;;1.35;0.10;;;;;;;;;;5301524;28;20058;-69
2022/12/31 07:06:03;;;;;;;0.95;0.20;;;;;;;;;;5306282;28;20028;-69
2022/12/31 07:08:43;;;;;;;1.48;0.20;;;;;;;;;;5305587;28;20391;-69
2022/12/31 07:11:19;;;;;;;2.17;0.13;;;;;;;;;;5306266;28;20024;-69
2022/12/31 07:13:58;;;;;;;1.17;0.10;;;;;;;;;;5305604;28;20038;-69
2022/12/31 07:16:29;;;;;;;0.60;0.10;;;;;;;;;;5305281;28;20020;-69
2022/12/31 07:19:19;;;;;;;1.95;0.10;;;;;;;;;;5306038;28;20092;-69
2022/12/31 07:21:51;;;;;;;2.40;0.25;;;;;;;;;;5305388;28;20284;-70
2022/12/31 07:24:23;;;;;;;1.52;0.10;;;;;;;;;;5304819;28;20008;-69
2022/12/31 07:26:54;;;;;;;2.15;0.20;;;;;;;;;;5305702;28;20039;-68
2022/12/31 07:29:39;;;;;;;1.35;0.10;;;;;;;;;;5305730;28;20057;-68
2022/12/31 07:32:29;;;;;;;2.83;0.30;;;;;;;;;;5305520;28;20278;-68
2022/12/31 07:35:09;;;;;;;1.67;0.15;;;;;;;;;;5305682;28;20020;-68
2022/12/31 07:37:47;;;;;;;1.20;0.10;;;;;;;;;;5304503;28;20043;-68
2022/12/31 07:40:18;;;;;;;0.88;0.25;;;;;;;;;;5305758;28;20378;-69
2022/12/31 07:42:52;;;;;;;1.15;0.20;;;;;;;;;;5304973;28;20099;-68
2022/12/31 07:45:27;;;;;;;1.88;0.30;;;;;;;;;;5304652;28;20464;-68
2022/12/31 07:47:58;;;;;;;2.65;0.20;;;;;;;;;;5304948;28;20109;-68
2022/12/31 07:50:29;;;;;;;1.95;0.10;;;;;;;;;;5305396;28;20367;-69
2022/12/31 07:53:01;;;;;;;2.58;0.25;;;;;;;;;;5304255;28;20047;-69
2022/12/31 07:55:33;;;;;;;1.85;0.30;;;;;;;;;;5304992;28;20361;-68
2022/12/31 07:58:14;;;;;;;1.15;0.20;;;;;;;;;;5304036;28;20031;-68
2022/12/31 08:00:45;;;;;;;1.60;0.13;;;;;;;;;;5304653;28;20080;-68
2022/12/31 08:03:23;;;;;;;1.88;0.20;;;;;;;;;;5304956;28;20020;-68
2022/12/31 08:05:54;;;;;;;1.30;0.20;;;;;;;;;;5303658;28;20355;-68
2022/12/31 08:08:48;;;;;;;0.90;0.20;;;;;;;;;;5305003;28;20100;-68
2022/12/31 08:11:24;;;;;;;3.38;0.22;;;;;;;;;;5305090;28;20269;-68
2022/12/31 08:13:59;;;;;;;0.60;0.20;;;;;;;;;;5303839;28;20028;-68
2022/12/31 08:16:30;;;;;;;1.50;0.20;;;;;;;;;;5303671;28;20024;-68
2022/12/31 08:19:01;;;;;;;1.48;0.20;;;;;;;;;;5303663;28;20012;-68
2022/12/31 08:21:42;;;;;;;1.38;0.10;;;;;;;;;;5304484;28;20531;-69
2022/12/31 08:24:19;;;;;;;3.05;0.30;;;;;;;;;;5304858;28;20024;-68
2022/12/31 08:26:50;;;;;;;1.35;0.10;;;;;;;;;;5303132;28;20134;-69
2022/12/31 08:29:29;;;;;;;1.30;0.15;;;;;;;;;;5304741;28;20092;-69
2022/12/31 08:32:03;;;;;;;1.13;0.20;;;;;;;;;;5304366;28;20289;-69
2022/12/31 08:34:37;;;;;;;0.93;0.13;;;;;;;;;;5303424;28;20464;-70
2022/12/31 08:37:14;;;;;;;0.65;0.20;;;;;;;;;;5304043;28;20115;-69
2022/12/31 08:40:04;;;;;;;0.90;0.20;;;;;;;;;;5304019;28;20016;-70
2022/12/31 08:42:54;;;;;;;1.40;0.20;;;;;;;;;;5304163;28;20034;-68
2022/12/31 08:45:29;;;;;;;1.98;0.17;;;;;;;;;;5303592;28;20020;-69
2022/12/31 08:48:07;;;;;;;2.03;0.20;;;;;;;;;;5303050;28;20079;-68
2022/12/31 08:50:38;;;;;;;2.30;0.20;;;;;;;;;;5303708;28;20039;-68
2022/12/31 08:53:09;;;;;;;1.15;0.20;;;;;;;;;;5303964;28;20024;-68
2022/12/31 08:55:42;;;;;;;1.65;0.20;;;;;;;;;;5292601;28;20337;-69
2022/12/31 08:58:25;;;;;;;1.85;0.30;;;;;;;;;;5287021;28;20122;-68
2022/12/31 09:00:57;;;;;;;1.00;0.17;;;;;;;;;;5281787;28;20471;-68
2022/12/31 09:03:37;;;;;;;0.73;0.20;;;;;;;;;;5280890;28;20021;-68
2022/12/31 09:06:08;;;;;;;1.65;0.13;;;;;;;;;;5281406;28;20028;-69
2022/12/31 09:08:55;;;;;;;1.23;0.10;;;;;;;;;;5280003;28;20027;-70
2022/12/31 09:11:44;;;;;;;1.48;0.10;;;;;;;;;;5281119;28;20267;-69
2022/12/31 09:14:31;;;;;;;1.45;0.20;;;;;;;;;;5280004;28;20088;-68
2022/12/31 09:17:07;;;;;;;1.05;0.10;;;;;;;;;;5300327;28;20024;-68
2022/12/31 09:19:39;;;;;;;2.75;0.20;;;;;;;;;;5302106;28;20458;-69
2022/12/31 09:22:10;;;;;;;1.73;0.20;;;;;;;;;;5302502;28;20178;-69
2022/12/31 09:24:41;;;;;;;1.67;0.28;;;;;;;;;;5302129;28;20024;-69
2022/12/31 09:27:26;;;;;;;2.05;0.20;;;;;;;;;;5303003;28;20024;-69
2022/12/31 09:30:03;;;;;;;1.30;0.17;;;;;;;;;;5301977;28;20016;-69
2022/12/31 09:32:47;;;;;;;1.00;0.20;;;;;;;;;;5302900;28;20031;-68
2022/12/31 09:35:29;;;;;;;2.30;0.20;;;;;;;;;;5303346;28;20073;-68
2022/12/31 09:38:19;;;;;;;1.55;0.20;;;;;;;;;;5302459;28;20467;-69
2022/12/31 09:40:50;;;;;;;1.42;0.20;;;;;;;;;;5302726;28;20460;-69
2022/12/31 09:43:40;;;;;;;2.20;0.20;;;;;;;;;;5302161;28;20035;-69
2022/12/31 09:46:31;;;;;;;2.88;0.20;;;;;;;;;;5303225;28;20302;-69
2022/12/31 09:49:22;;;;;;;2.05;0.20;;;;;;;;;;5302359;28;20418;-69
2022/12/31 09:51:53;;;;;;;1.98;0.30;;;;;;;;;;5301968;28;20020;-68
2022/12/31 09:54:32;;;;;;;1.42;0.20;;;;;;;;;;5302603;28;20026;-69
2022/12/31 09:57:03;;;;;;;1.98;0.38;;;;;;;;;;5302821;28;20024;-69
2022/12/31 09:59:40;;;;;;;3.35;0.32;;;;;;;;;;5301854;28;20463;-69
2022/12/31 10:02:22;;;;;;;2.55;0.40;;;;;;;;;;5302868;28;20629;-68
2022/12/31 10:05:02;;;;;;;2.90;0.30;;;;;;;;;;5301829;28;20489;-68
2022/12/31 10:07:49;;;;;;;0.75;0.20;;;;;;;;;;5302156;28;20036;-69
2022/12/31 10:10:39;;;;;;;5.50;0.30;;;;;;;;;;5302584;28;20024;-69
2022/12/31 10:13:20;;;;;;;1.50;0.40;;;;;;;;;;5301642;28;20111;-69
2022/12/31 10:16:04;;;;;;;2.47;0.20;;;;;;;;;;5302705;28;20051;-69
2022/12/31 10:18:50;;;;;;;1.95;0.28;;;;;;;;;;5301512;28;20027;-68
2022/12/31 10:21:21;;;;;;;2.92;0.30;;;;;;;;;;5302171;28;20016;-68
2022/12/31 10:24:22;;;;;;;3.92;0.30;;;;;;;;;;5302512;28;20018;-68
2022/12/31 10:27:08;;;;;;;3.25;0.30;;;;;;;;;;5288134;28;20302;-68
2022/12/31 10:29:46;;;;;;;2.65;0.30;;;;;;;;;;5301993;28;20459;-69
2022/12/31 10:32:20;;;;;;;2.40;0.22;;;;;;;;;;5302218;28;20038;-68
2022/12/31 10:35:08;;;;;;;3.63;0.30;;;;;;;;;;5301511;28;20507;-69
2022/12/31 10:37:51;;;;;;;2.75;0.20;;;;;;;;;;5302015;28;20031;-70
2022/12/31 10:40:43;;;;;;;2.60;0.40;;;;;;;;;;5305044;28;20108;-69
2022/12/31 10:43:32;;;;;;;2.03;0.30;;;;;;;;;;5306924;28;20035;-70
2022/12/31 10:46:06;;;;;;;2.03;0.30;;;;;;;;;;5306159;28;20031;-69
2022/12/31 10:48:57;;;;;;;1.92;0.25;;;;;;;;;;5305381;28;20048;-69
2022/12/31 10:51:47;;;;;;;2.53;0.40;;;;;;;;;;5306184;28;20073;-68
2022/12/31 10:54:35;;;;;;;3.58;0.77;;;;;;;;;;5305829;28;20417;-70
2022/12/31 10:57:28;;;;;;;4.72;0.30;;;;;;;;;;5305787;28;20095;-69
2022/12/31 11:00:09;;;;;;;2.85;0.50;;;;;;;;;;5306122;28;20024;-69
2022/12/31 11:02:59;;;;;;;2.38;0.47;;;;;;;;;;5305115;28;20024;-69
2022/12/31 11:05:30;;;;;;;2.53;0.25;;;;;;;;;;5306076;28;20020;-70
2022/12/31 11:08:08;;;;;;;3.60;0.40;;;;;;;;;;5305334;28;20035;-70
2022/12/31 11:10:54;;;;;;;4.00;0.30;;;;;;;;;;5305785;28;20429;-68
2022/12/31 11:13:47;;;;;;;2.28;0.30;;;;;;;;;;5305828;28;20031;-69
2022/12/31 11:16:26;;;;;;;2.30;0.30;;;;;;;;;;5305670;28;20455;-68
2022/12/31 11:19:06;;;;;;;2.05;0.20;;;;;;;;;;5305872;28;20027;-69
2022/12/31 11:21:59;;;;;;;2.08;0.30;;;;;;;;;;5305661;28;20400;-69
2022/12/31 11:24:39;;;;;;;2.65;0.30;;;;;;;;;;5305725;28;20020;-69
2022/12/31 11:27:17;;;;;;;2.40;0.40;;;;;;;;;;5305818;28;20032;-68
2022/12/31 11:29:48;;;;;;;3.53;0.63;;;;;;;;;;5304611;28;20455;-69
2022/12/31 11:32:31;;;;;;;4.70;0.93;;;;;;;;;;5305705;28;20030;-68
2022/12/31 11:35:07;;;;;;;3.53;0.30;;;;;;;;;;5305623;28;20023;-69
2022/12/31 11:37:46;;;;;;;1.77;0.32;;;;;;;;;;5304469;28;20020;-69
2022/12/31 11:40:17;;;;;;;;;;;;;;;;;;5305950;28;20008;-70
2022/12/31 11:42:59;;;;;;;3.72;0.68;;;;;;;;;;5305202;28;19998;-69
2022/12/31 11:45:52;;;;;;;1.77;0.47;;;;;;;;;;5305421;28;20043;-69
2022/12/31 11:48:29;;;;;;;3.75;0.30;;;;;;;;;;5304678;28;20056;-69
2022/12/31 11:51:01;;;;;;;5.55;0.40;;;;;;;;;;5302869;28;20023;-69
2022/12/31 11:53:32;;;;;;;4.57;0.75;;;;;;;;;;5304960;28;20375;-69
2022/12/31 11:56:03;;;;;;;3.63;0.70;;;;;;;;;;5304792;28;20764;-69
2022/12/31 11:58:34;;;;;;;2.63;0.32;;;;;;;;;;5304284;28;20663;-69
2022/12/31 12:01:10;;;;;;;3.17;0.40;;;;;;;;;;5304861;28;20678;-69
2022/12/31 12:03:42;;;;;;;5.35;0.50;;;;;;;;;;5304803;28;20331;-69
2022/12/31 12:06:15;;;;;;;3.75;0.40;;;;;;;;;;5304336;28;20024;-69
2022/12/31 12:08:48;;;;;;;6.43;0.50;;;;;;;;;;5304287;28;20027;-69
2022/12/31 12:11:22;;;;;;;2.55;0.30;;;;;;;;;;5304331;28;20750;-69
2022/12/31 12:13:53;;;;;;;2.15;0.30;;;;;;;;;;5304374;28;20112;-69
2022/12/31 12:16:25;;;;;;;3.47;0.40;;;;;;;;;;5304457;28;20107;-68
2022/12/31 12:19:04;;;;;;;4.00;0.43;;;;;;;;;;5303847;28;20024;-68
2022/12/31 12:21:43;;;;;;;1.60;0.30;;;;;;;;;;5304250;28;20040;-68
2022/12/31 12:24:21;;;;;;;4.57;0.40;;;;;;;;;;5304664;28;20026;-68
2022/12/31 12:26:53;;;;;;;2.45;0.47;;;;;;;;;;5304058;28;20024;-68
2022/12/31 12:29:33;;;;;;;2.22;0.40;;;;;;;;;;5304511;28;20024;-69
2022/12/31 12:32:05;;;;;;;5.03;0.40;;;;;;;;;;5303935;28;20064;-69
2022/12/31 12:34:37;;;;;;;2.95;0.30;;;;;;;;;;5303823;28;20091;-69
2022/12/31 12:37:25;;;;;;;3.72;0.70;;;;;;;;;;5304456;28;20398;-69
2022/12/31 12:39:59;;;;;;;5.10;0.40;;;;;;;;;;5300004;28;20031;-69
2022/12/31 12:42:31;;;;;;;3.05;0.47;;;;;;;;;;5303937;28;20254;-68
2022/12/31 12:45:05;;;;;;;1.98;0.30;;;;;;;;;;5303559;28;20111;-68
2022/12/31 12:47:36;;;;;;;2.33;0.40;;;;;;;;;;5302829;28;20059;-68
2022/12/31 12:50:19;;;;;;;4.15;0.65;;;;;;;;;;5303574;28;20008;-69
2022/12/31 12:53:06;;;;;;;2.75;0.40;;;;;;;;;;5303331;28;20089;-68
2022/12/31 12:55:58;;;;;;;4.13;0.40;;;;;;;;;;5303191;28;20067;-69
2022/12/31 12:58:37;;;;;;;6.97;0.50;;;;;;;;;;5302840;28;20502;-69
2022/12/31 13:01:33;;;;;;;4.47;0.43;;;;;;;;;;5302318;28;20075;-69
2022/12/31 13:04:22;;;;;;;3.78;0.70;;;;;;;;;;5303136;28;20012;-69
2022/12/31 13:07:06;;;;;;;3.92;0.65;;;;;;;;;;5303530;28;20472;-69
2022/12/31 13:09:55;;;;;;;4.07;0.68;;;;;;;;;;5302640;28;20382;-68
2022/12/31 13:12:50;;;;;;;2.60;0.40;;;;;;;;;;5303483;28;20086;-68
2022/12/31 13:15:26;;;;;;;2.35;0.30;;;;;;;;;;5302410;28;20019;-69
2022/12/31 13:18:15;;;;;;;2.88;0.50;;;;;;;;;;5303186;28;20027;-68
2022/12/31 13:20:51;;;;;;;4.88;0.50;;;;;;;;;;5302631;28;20027;-68
2022/12/31 13:23:29;;;;;;;3.20;0.40;;;;;;;;;;5302890;28;20344;-69
2022/12/31 13:26:09;;;;;;;2.42;0.30;;;;;;;;;;5303011;28;20478;-69
2022/12/31 13:28:41;;;;;;;4.22;0.40;;;;;;;;;;5301745;28;20252;-69
2022/12/31 13:31:16;;;;;;;4.07;0.50;;;;;;;;;;5303457;28;20371;-69
2022/12/31 13:33:50;;;;;;;3.78;0.30;;;;;;;;;;5302844;28;20019;-68
2022/12/31 13:36:24;;;;;;;4.53;0.70;;;;;;;;;;5301923;28;20085;-69
2022/12/31 13:38:58;;;;;;;3.60;0.55;;;;;;;;;;5302969;28;20028;-68
2022/12/31 13:41:33;;;;;;;4.30;0.43;;;;;;;;;;5302599;28;20103;-69
2022/12/31 13:44:10;;;;;;;1.83;0.32;;;;;;;;;;5302081;28;20031;-69
2022/12/31 13:47:00;;;;;;;2.17;0.30;;;;;;;;;;5302202;28;20396;-70
2022/12/31 13:49:50;;;;;;;10.13;0.68;;;;;;;;;;5301789;28;20032;-69
2022/12/31 13:52:33;;;;;;;3.33;0.50;;;;;;;;;;5302477;28;20367;-70
2022/12/31 13:55:22;;;;;;;5.57;0.90;;;;;;;;;;5302713;28;20040;-70
2022/12/31 13:57:56;;;;;;;2.33;0.40;;;;;;;;;;5301498;28;20111;-70
2022/12/31 14:00:43;;;;;;;4.72;0.70;;;;;;;;;;5302406;28;20379;-70
2022/12/31 14:03:30;;;;;;;2.35;0.50;;;;;;;;;;5302889;28;20054;-69
2022/12/31 14:06:09;;;;;;;3.75;0.50;;;;;;;;;;5301700;28;20070;-69
2022/12/31 14:08:40;;;;;;;7.38;0.65;;;;;;;;;;5302051;28;20016;-69
2022/12/31 14:11:17;;;;;;;7.18;0.82;;;;;;;;;;5302053;28;20069;-69
2022/12/31 14:14:02;;;;;;;3.55;0.50;;;;;;;;;;5301465;28;20055;-68
2022/12/31 14:16:37;;;;;;;6.80;0.80;;;;;;;;;;5302235;28;20024;-68
2022/12/31 14:19:26;;;;;;;5.68;0.60;;;;;;;;;;5301792;28;20019;-68
2022/12/31 14:22:23;;;;;;;5.07;0.57;;;;;;;;;;5302226;28;20424;-69
2022/12/31 14:24:57;;;;;;;4.88;0.70;;;;;;;;;;5279361;28;20090;-69
2022/12/31 14:27:30;;;;;;;6.25;1.02;;;;;;;;;;5291519;28;20360;-70
2022/12/31 14:30:05;;;;;;;5.53;0.73;;;;;;;;;;5281110;28;20040;-68
2022/12/31 14:32:39;;;;;;;6.35;0.60;;;;;;;;;;5280330;28;20162;-69
2022/12/31 14:35:22;;;;;;;4.00;0.65;;;;;;;;;;5281480;28;20368;-68
2022/12/31 14:38:12;;;;;;;5.47;0.60;;;;;;;;;;5281066;28;20361;-69
2022/12/31 14:40:55;;;;;;;9.55;1.08;;;;;;;;;;5280017;28;20476;-69
2022/12/31 14:43:32;;;;;;;4.57;0.80;;;;;;;;;;5280927;28;20052;-69
2022/12/31 14:46:12;;;;;;;5.93;0.95;;;;;;;;;;5279917;28;20539;-67
2022/12/31 14:48:59;;;;;;;7.15;1.38;;;;;;;;;;5280505;28;20136;-67
2022/12/31 14:51:30;;;;;;;7.50;0.90;;;;;;;;;;5281052;28;20028;-68
2022/12/31 14:54:01;;;;;;;5.63;0.70;;;;;;;;;;5280228;28;20024;-68
2022/12/31 14:56:38;;;;;;;6.40;0.73;;;;;;;;;;5280801;28;20025;-67
2022/12/31 14:59:42;;;;;;;7.20;1.00;;;;;;;;;;5281213;28;20016;-67
2022/12/31 15:02:25;;;;;;;4.70;0.80;;;;;;;;;;5246444;28;20035;-68
2022/12/31 15:05:08;;;;;;;6.15;0.70;;;;;;;;;;5280923;28;20037;-68
2022/12/31 15:07:50;;;;;;;4.45;0.77;;;;;;;;;;5279490;28;20032;-68
2022/12/31 15:10:21;;;;;;;5.72;0.57;;;;;;;;;;5280953;28;20052;-68
2022/12/31 15:13:05;;;;;;;5.13;0.65;;;;;;;;;;5280691;28;20078;-67
2022/12/31 15:15:54;;;;;;;3.22;0.70;;;;;;;;;;5280444;28;20040;-68
2022/12/31 15:18:25;;;;;;;4.60;0.60;;;;;;;;;;5280973;28;20030;-67
2022/12/31 15:21:15;;;;;;;5.57;0.90;;;;;;;;;;5280014;28;20024;-68
2022/12/31 15:23:48;;;;;;;4.97;0.50;;;;;;;;;;5280451;28;20271;-68
2022/12/31 15:26:22;;;;;;;3.53;0.50;;;;;;;;;;5283872;28;20048;-68
2022/12/31 15:29:07;;;;;;;5.63;0.60;;;;;;;;;;5283443;28;20099;-68
2022/12/31 15:31:44;;;;;;;3.72;0.50;;;;;;;;;;5283941;28;20020;-68
2022/12/31 15:34:24;;;;;;;4.40;0.45;;;;;;;;;;5284876;28;20379;-68
2022/12/31 15:36:57;;;;;;;4.28;0.50;;;;;;;;;;5283724;28;20020;-69
2022/12/31 15:39:37;;;;;;;5.50;0.73;;;;;;;;;;5284390;28;20372;-69
2022/12/31 15:42:31;;;;;;;3.10;0.60;;;;;;;;;;5283448;28;20020;-69
2022/12/31 15:45:04;;;;;;;5.10;0.47;;;;;;;;;;5284291;28;20055;-67
2022/12/31 15:47:38;;;;;;;4.80;0.50;;;;;;;;;;5283669;28;20139;-68